Pagrindinis puslapis
METAR-TAF:

METAR-TAF

Oro uostai :

Bandžulio tarptautinis oro uostas

Bandžulis, Gambija

platuma: 13-21N, ilguma: 016-48W, Aukštis: 36 m

Dabartinis oras

Ataskaita buvo paskelbta 33 minutes, ne 11:00 UTC
Vėjas 10 kt iš Pietų
Temperatūra 28°C
Drėgmė 84%
Slėgis 1011 hPa
Matomumas 10 km arba daugiau
Su prošvaistėmis ne aukštis 1200 ft

METAR: GBYD 141100Z 19010KT 9999 BKN012 28/25 Q1011

Laikas: 11:33 (11:33 UTC)

Prognozė

Ataskaita buvo paskelbta 6 valandos ir 3 minutes, ne 05:30 UTC
Prognozė galioja nuo 14 metu 06 UTC su 15 metu 12 UTC
Vėjas 6 kt iš Rytų/Pietryčių
Matomumas 10 km arba daugiau
Išsisklaidę debesys ne aukštis 1000 ft

TAF: GBYD 140530Z 1406/1512 12006KT 9999 SCT010

Orai ataskaitas ir orų prognozės (METAR, TAF).

turimą stotys yra geltonos ir raudonos taškus žemėlapyje.

Perkelti pele per norėdami pamatyti stoties vardą.

Tada spustelėkite, norėdami matyti oro stebėjimo ir prognozės.

Norėdami pakeisti žemėlapį: spustelėkite ant žalios mygtukų su juodo kryžiaus žemyn,; žalią mygtuką su brūkšneliu, jei norite nutolinti; arba žalių rodyklių gretimoms žemėlapius.


METAR-TAF: